createdAt,value
2019-05-26T00:00:11.696Z,-21766.68
2019-05-26T00:02:41.134Z,-21774.13
2019-05-26T00:05:09.487Z,-21781.29
2019-05-26T00:07:37.814Z,-21777.16
2019-05-26T00:10:08.222Z,-21785.42
2019-05-26T00:12:36.986Z,-21778.12
2019-05-26T00:15:08.351Z,-21774.68
2019-05-26T00:17:36.609Z,-21774.82
2019-05-26T00:20:06.638Z,-21773.71
2019-05-26T00:22:34.937Z,-21763.10
2019-05-26T00:25:03.582Z,-21748.34
2019-05-26T00:27:31.847Z,-21763.23
2019-05-26T00:30:00.227Z,-21776.06
2019-05-26T00:32:28.603Z,-21771.64
2019-05-26T00:34:56.878Z,-21776.34
2019-05-26T00:37:25.839Z,-21785.84
2019-05-26T00:39:54.217Z,-21775.64
2019-05-26T00:42:22.571Z,-21763.51
2019-05-26T00:44:50.901Z,-21761.45
2019-05-26T00:47:19.132Z,-21735.08
2019-05-26T00:49:47.421Z,-21768.75
2019-05-26T00:52:15.678Z,-21754.13
2019-05-26T00:54:43.963Z,-21757.30
2019-05-26T00:57:12.231Z,-21757.71
2019-05-26T00:59:40.530Z,-21762.55
2019-05-26T01:02:08.909Z,-21758.54
2019-05-26T01:04:37.224Z,-21761.72
2019-05-26T01:07:05.633Z,-21764.48
2019-05-26T01:09:33.974Z,-21755.51
2019-05-26T01:12:04.449Z,-21744.32
2019-05-26T01:14:32.713Z,-21740.88
2019-05-26T01:17:01.004Z,-21746.26
2019-05-26T01:19:29.274Z,-21747.37
2019-05-26T01:21:57.558Z,-21762.27
2019-05-26T01:24:25.851Z,-21755.09
2019-05-26T01:26:54.128Z,-21752.89
2019-05-26T01:29:22.452Z,-21735.91
2019-05-26T01:31:50.842Z,-21752.48
2019-05-26T01:34:21.198Z,-21756.06
2019-05-26T01:36:49.485Z,-21749.71
2019-05-26T01:39:17.741Z,-21745.86
2019-05-26T01:41:46.011Z,-21738.25
2019-05-26T01:44:14.280Z,-21731.49
2019-05-26T01:46:42.525Z,-21731.07
2019-05-26T01:49:10.791Z,-21740.88
2019-05-26T01:51:39.157Z,-21747.64
2019-05-26T01:54:07.449Z,-21754.41
2019-05-26T01:56:35.718Z,-21754.13
2019-05-26T01:59:05.840Z,-21761.45
2019-05-26T02:01:34.167Z,-21752.75
2019-05-26T02:04:02.456Z,-21747.78
2019-05-26T02:06:30.712Z,-21739.64
2019-05-26T02:08:59.012Z,-21744.88
2019-05-26T02:11:27.300Z,-21737.70
2019-05-26T02:13:55.553Z,-21750.68
2019-05-26T02:16:23.815Z,-21738.53
2019-05-26T02:18:52.081Z,-21723.05
2019-05-26T02:21:20.354Z,-21725.68
2019-05-26T02:23:48.778Z,-21732.04
2019-05-26T02:26:19.686Z,-21681.25
2019-05-26T02:28:48.038Z,-21728.03
2019-05-26T02:31:16.317Z,-21719.46
2019-05-26T02:33:44.606Z,-21729.00
2019-05-26T02:36:12.869Z,-21711.71
2019-05-26T02:38:59.717Z,-21729.00
2019-05-26T02:41:11.121Z,-21722.09
2019-05-26T02:43:39.640Z,-21720.43
2019-05-26T02:46:07.909Z,-21718.08
2019-05-26T02:48:36.188Z,-21710.19
2019-05-26T02:51:04.542Z,-21707.29
2019-05-26T02:53:32.823Z,-21697.87
2019-05-26T02:56:01.308Z,-21714.89
2019-05-26T02:58:30.545Z,-21707.15
2019-05-26T03:00:58.904Z,-21715.72
2019-05-26T03:03:27.225Z,-21707.15
2019-05-26T03:05:56.253Z,-21710.05
2019-05-26T03:08:25.774Z,-21695.93
2019-05-26T03:10:54.795Z,-21672.53
2019-05-26T03:13:23.092Z,-21696.21
2019-05-26T03:15:52.087Z,-21714.48
2019-05-26T03:18:20.344Z,-21695.52
2019-05-26T03:20:48.802Z,-21684.99
2019-05-26T03:23:17.217Z,-21698.70
2019-05-26T03:25:46.517Z,-21707.29
2019-05-26T03:28:14.746Z,-21703.69
2019-05-26T03:30:43.001Z,-21709.64
2019-05-26T03:33:11.266Z,-21711.85
2019-05-26T03:35:39.607Z,-21688.74
2019-05-26T03:38:07.931Z,-21701.89
2019-05-26T03:40:36.270Z,-21723.47
2019-05-26T03:43:04.528Z,-21724.85
2019-05-26T03:45:45.258Z,-21726.79
2019-05-26T03:48:13.462Z,-21721.67
2019-05-26T03:50:41.719Z,-21721.39
2019-05-26T03:53:09.988Z,-21724.57
2019-05-26T03:55:38.261Z,-21715.31
2019-05-26T03:58:06.544Z,-21708.67
2019-05-26T04:00:34.816Z,-21708.26
2019-05-26T04:03:05.141Z,-21683.19
2019-05-26T04:05:33.427Z,-21689.71
2019-05-26T04:08:04.691Z,-21678.62
2019-05-26T04:10:31.756Z,-21667.11
2019-05-26T04:13:00.028Z,-21705.63
2019-05-26T04:18:02.496Z,-21714.20
2019-05-26T04:20:30.772Z,-21708.54
2019-05-26T04:23:00.237Z,-21701.89
2019-05-26T04:25:28.909Z,-21688.05
2019-05-26T04:27:58.857Z,-21704.52
2019-05-26T04:30:28.132Z,-21721.12
2019-05-26T04:32:56.445Z,-21716.70
2019-05-26T04:35:24.691Z,-21723.61
2019-05-26T04:37:52.948Z,-21707.57
2019-05-26T04:40:27.363Z,-21708.95
2019-05-26T04:42:51.348Z,-21697.73
2019-05-26T04:45:19.637Z,-21704.25
2019-05-26T04:47:47.938Z,-21711.43
2019-05-26T04:50:17.284Z,-21717.11
2019-05-26T04:53:04.459Z,-21718.50
2019-05-26T04:55:16.582Z,-21726.23
2019-05-26T04:57:44.922Z,-21727.61
2019-05-26T05:00:13.263Z,-21713.23
2019-05-26T05:02:46.083Z,-21733.28
2019-05-26T05:05:14.495Z,-21719.05
2019-05-26T05:07:42.859Z,-21719.88
2019-05-26T05:10:11.293Z,-21730.93
2019-05-26T05:12:39.596Z,-21718.21
2019-05-26T05:15:09.567Z,-21732.18
2019-05-26T05:17:37.900Z,-21739.50
2019-05-26T05:20:07.641Z,-21719.46
2019-05-26T05:22:37.937Z,-21725.54
2019-05-26T05:25:14.100Z,-21722.50
2019-05-26T05:27:37.935Z,-21707.84
2019-05-26T05:30:08.919Z,-21696.90
2019-05-26T05:32:37.210Z,-21715.04
2019-05-26T05:35:07.807Z,-21744.88
2019-05-26T05:37:36.795Z,-21720.02
2019-05-26T05:40:09.995Z,-21682.36
2019-05-26T05:42:38.312Z,-21685.69
2019-05-26T05:45:08.171Z,-21706.32
2019-05-26T05:47:36.509Z,-21687.21
2019-05-26T05:50:09.506Z,-21684.44
2019-05-26T05:52:37.833Z,-21662.81
2019-05-26T05:55:07.473Z,-21687.49
2019-05-26T05:57:35.889Z,-21725.68
2019-05-26T06:00:06.357Z,-21724.30
2019-05-26T06:02:36.751Z,-21684.44
2019-05-26T06:05:06.941Z,-21680.14
2019-05-26T06:07:35.295Z,-21710.33
2019-05-26T06:10:06.307Z,-21699.39
2019-05-26T06:12:34.717Z,-21714.75
2019-05-26T06:15:04.188Z,-21728.58
2019-05-26T06:17:32.457Z,-21676.68
2019-05-26T06:20:00.804Z,-21685.55
2019-05-26T06:22:29.175Z,-21692.89
2019-05-26T06:24:57.452Z,-21688.05
2019-05-26T06:27:25.717Z,-21673.08
2019-05-26T06:29:58.765Z,-21729.00
2019-05-26T06:32:24.211Z,-21703.00
2019-05-26T06:34:52.511Z,-21730.10
2019-05-26T06:37:20.866Z,-21724.02
2019-05-26T06:39:49.421Z,-21700.78
2019-05-26T06:42:18.657Z,-21732.31
2019-05-26T06:44:53.643Z,-21729.96
2019-05-26T06:47:18.262Z,-21698.43
2019-05-26T06:49:46.565Z,-21730.65
2019-05-26T06:52:14.826Z,-21711.58
2019-05-26T06:54:44.117Z,-21691.92
2019-05-26T06:57:12.412Z,-21676.96
2019-05-26T06:59:40.839Z,-21707.98
2019-05-26T07:02:09.176Z,-21706.45
2019-05-26T07:04:38.557Z,-21718.35
2019-05-26T07:07:06.864Z,-21672.66
2019-05-26T07:09:37.794Z,-21693.03
2019-05-26T07:12:06.158Z,-21723.75
2019-05-26T07:14:34.474Z,-21710.88
2019-05-26T07:17:02.738Z,-21738.80
2019-05-26T07:19:31.033Z,-21727.89
2019-05-26T07:21:59.309Z,-21722.78
2019-05-26T07:24:29.438Z,-21719.46
2019-05-26T07:26:58.496Z,-21726.09
2019-05-26T07:29:26.794Z,-21741.98
2019-05-26T07:31:55.166Z,-21759.51
2019-05-26T07:34:23.402Z,-21747.23
2019-05-26T07:36:51.690Z,-21695.52
2019-05-26T07:39:20.024Z,-21706.45
2019-05-26T07:41:48.368Z,-21723.47
2019-05-26T07:44:16.671Z,-21688.87
2019-05-26T07:46:44.938Z,-21715.04
2019-05-26T07:49:13.296Z,-21734.53
2019-05-26T07:51:41.588Z,-21733.42
2019-05-26T07:54:24.602Z,-21704.66
2019-05-26T07:56:41.108Z,-21712.54
2019-05-26T07:59:09.365Z,-21705.49
2019-05-26T08:01:37.671Z,-21689.29
2019-05-26T08:04:06.002Z,-21702.03
2019-05-26T08:06:34.268Z,-21715.72
2019-05-26T08:09:02.552Z,-21698.02
2019-05-26T08:11:30.818Z,-21708.81
2019-05-26T08:13:59.117Z,-21711.16
2019-05-26T08:16:32.166Z,-21728.03
2019-05-26T08:19:08.320Z,-21700.23
2019-05-26T08:21:46.146Z,-21713.79
2019-05-26T08:24:14.498Z,-21744.19
2019-05-26T08:26:45.780Z,-21732.59
2019-05-26T08:29:14.067Z,-21721.67
2019-05-26T08:31:43.396Z,-21750.82
2019-05-26T08:34:11.719Z,-21766.13
2019-05-26T08:36:40.013Z,-21745.29
2019-05-26T08:39:09.597Z,-21741.43
2019-05-26T08:41:37.894Z,-21740.05
2019-05-26T08:44:06.234Z,-21764.48
2019-05-26T08:46:34.619Z,-21750.82
2019-05-26T08:49:02.884Z,-21709.36
2019-05-26T08:51:31.161Z,-21741.02
2019-05-26T08:53:59.432Z,-21731.49
2019-05-26T08:56:29.772Z,-21757.86
2019-05-26T08:58:58.133Z,-21698.15
2019-05-26T09:01:26.525Z,-21691.37
2019-05-26T09:03:54.796Z,-21760.48
2019-05-26T09:06:23.063Z,-21758.68
2019-05-26T09:08:52.230Z,-21746.41
2019-05-26T09:11:21.651Z,-21739.77
2019-05-26T09:13:49.955Z,-21724.71
2019-05-26T09:16:18.228Z,-21705.77
2019-05-26T09:18:46.518Z,-21761.86
2019-05-26T09:21:14.904Z,-21774.13
2019-05-26T09:23:43.161Z,-21805.38
2019-05-26T09:26:11.423Z,-21796.02
2019-05-26T09:28:39.720Z,-21758.13
2019-05-26T09:31:07.983Z,-21773.16
2019-05-26T09:33:37.392Z,-21767.64
2019-05-26T09:36:05.671Z,-21791.76
2019-05-26T09:38:37.216Z,-21766.27
2019-05-26T09:41:05.502Z,-21799.74
2019-05-26T09:43:33.788Z,-21815.14
2019-05-26T09:46:02.137Z,-21751.38
2019-05-26T09:48:30.414Z,-21811.16
2019-05-26T09:50:58.757Z,-21794.24
2019-05-26T09:53:27.108Z,-21753.86
2019-05-26T09:55:55.370Z,-21784.32
2019-05-26T09:58:23.704Z,-21766.27
2019-05-26T10:00:52.039Z,-21763.79
2019-05-26T10:03:20.400Z,-21745.16
2019-05-26T10:05:48.689Z,-21712.68
2019-05-26T10:08:17.004Z,-21725.27
2019-05-26T10:10:45.272Z,-21781.29
2019-05-26T10:13:13.553Z,-21792.73
2019-05-26T10:15:41.819Z,-21756.89
2019-05-26T10:18:10.107Z,-21778.27
2019-05-26T10:20:38.406Z,-21786.66
2019-05-26T10:23:06.693Z,-21802.64
2019-05-26T10:25:34.998Z,-21739.08
2019-05-26T10:28:03.269Z,-21756.06
2019-05-26T10:30:31.529Z,-21788.60
2019-05-26T10:32:59.804Z,-21804.29
2019-05-26T10:35:29.115Z,-21732.18
2019-05-26T10:37:57.374Z,-21802.91
2019-05-26T10:40:25.635Z,-21827.65
2019-05-26T10:42:53.942Z,-21856.75
2019-05-26T10:45:23.180Z,-21817.76
2019-05-26T10:47:51.518Z,-21781.98
2019-05-26T10:50:19.847Z,-21811.99
2019-05-26T10:52:48.219Z,-21794.79
2019-05-26T10:55:16.671Z,-21784.05
2019-05-26T10:57:44.974Z,-21824.77
2019-05-26T11:00:13.315Z,-21784.59
2019-05-26T11:02:41.602Z,-21796.44
2019-05-26T11:05:18.846Z,-21755.37
2019-05-26T11:07:42.565Z,-21792.59
2019-05-26T11:10:10.905Z,-21777.44
2019-05-26T11:12:39.234Z,-21804.01
2019-05-26T11:15:08.478Z,-21774.40
2019-05-26T11:17:36.898Z,-21821.61
2019-05-26T11:20:10.439Z,-21824.22
2019-05-26T11:22:39.740Z,-21839.88
2019-05-26T11:25:08.340Z,-21867.17
2019-05-26T11:27:36.712Z,-21857.99
2019-05-26T11:30:09.991Z,-21837.95
2019-05-26T11:32:38.426Z,-21827.10
2019-05-26T11:35:07.059Z,-21872.79
2019-05-26T11:37:37.439Z,-21808.00
2019-05-26T11:40:07.337Z,-21874.98
2019-05-26T11:42:36.582Z,-21881.70
2019-05-26T11:45:07.101Z,-21891.27
2019-05-26T11:47:35.402Z,-21887.44
2019-05-26T11:50:08.490Z,-21890.99
2019-05-26T11:52:36.794Z,-21955.45
2019-05-26T11:55:08.458Z,-21943.45
2019-05-26T11:57:37.511Z,-21921.07
2019-05-26T12:00:07.761Z,-21859.90
2019-05-26T12:02:36.468Z,-21939.90
2019-05-26T12:05:10.230Z,-21880.18
2019-05-26T12:07:43.070Z,-21904.12
2019-05-26T12:10:14.473Z,-21887.03
2019-05-26T12:12:42.902Z,-21867.71
2019-05-26T12:15:12.135Z,-21838.50
2019-05-26T12:17:40.559Z,-21822.98
2019-05-26T12:20:09.389Z,-21903.30
2019-05-26T12:22:37.648Z,-21933.50
2019-05-26T12:25:07.332Z,-21927.35
2019-05-26T12:27:35.724Z,-21934.45
2019-05-26T12:30:06.559Z,-21975.59
2019-05-26T12:32:34.895Z,-21967.29
2019-05-26T12:35:04.358Z,-21918.48
2019-05-26T12:37:32.714Z,-21947.13
2019-05-26T12:40:00.979Z,-21968.11
2019-05-26T12:42:29.379Z,-21955.99
2019-05-26T12:44:57.643Z,-21953.40
2019-05-26T12:47:25.914Z,-21941.54
2019-05-26T12:49:54.319Z,-21983.48
2019-05-26T12:52:22.715Z,-22003.20
2019-05-26T12:54:50.983Z,-22002.65
2019-05-26T12:57:19.338Z,-21972.33
2019-05-26T12:59:47.688Z,-21937.72
2019-05-26T13:02:15.975Z,-21937.59
2019-05-26T13:04:44.306Z,-21931.86
2019-05-26T13:07:12.636Z,-21944.95
2019-05-26T13:09:41.845Z,-21958.30
2019-05-26T13:12:10.118Z,-21957.35
2019-05-26T13:14:38.469Z,-22080.80
2019-05-26T13:17:06.815Z,-22085.39
2019-05-26T13:19:35.118Z,-22072.15
2019-05-26T13:22:03.814Z,-22066.34
2019-05-26T13:24:32.085Z,-21995.17
2019-05-26T13:27:01.408Z,-21946.99
2019-05-26T13:29:29.673Z,-21910.83
2019-05-26T13:31:57.939Z,-21991.51
2019-05-26T13:34:26.244Z,-22024.77
2019-05-26T13:36:54.549Z,-22003.87
2019-05-26T13:39:22.826Z,-21954.36
2019-05-26T13:41:52.078Z,-21985.53
2019-05-26T13:44:20.368Z,-21981.85
2019-05-26T13:46:48.649Z,-22069.72
2019-05-26T13:49:16.951Z,-22043.07
2019-05-26T13:51:45.384Z,-21981.72
2019-05-26T13:54:14.604Z,-22006.45
2019-05-26T13:56:42.899Z,-22044.55
2019-05-26T13:59:11.232Z,-22041.84
2019-05-26T14:01:41.545Z,-22001.43
2019-05-26T14:04:09.866Z,-22027.07
2019-05-26T14:06:38.089Z,-22091.06
2019-05-26T14:09:08.708Z,-22048.62
2019-05-26T14:11:37.050Z,-21987.84
2019-05-26T14:14:05.865Z,-22048.75
2019-05-26T14:16:37.858Z,-22008.62
2019-05-26T14:19:08.796Z,-21940.58
2019-05-26T14:21:37.125Z,-21946.86
2019-05-26T14:24:05.961Z,-22003.46
2019-05-26T14:26:34.335Z,-21928.58
2019-05-26T14:29:02.606Z,-21946.73
2019-05-26T14:31:31.392Z,-21893.73
2019-05-26T14:33:59.646Z,-22016.63
2019-05-26T14:36:27.961Z,-21975.32
2019-05-26T14:38:56.211Z,-21991.51
2019-05-26T14:41:24.481Z,-21980.22
2019-05-26T14:43:52.760Z,-21953.54
2019-05-26T14:46:21.017Z,-21940.99
2019-05-26T14:48:49.302Z,-21947.81
2019-05-26T14:51:17.625Z,-22006.31
2019-05-26T14:53:45.880Z,-21966.07
2019-05-26T14:56:16.193Z,-21926.94
2019-05-26T14:58:44.547Z,-21892.91
2019-05-26T15:01:12.918Z,-21965.12
2019-05-26T15:03:41.208Z,-22027.34
2019-05-26T15:06:09.578Z,-22069.31
2019-05-26T15:08:37.862Z,-22036.97
2019-05-26T15:11:07.052Z,-22011.20
2019-05-26T15:13:39.122Z,-22089.44
2019-05-26T15:16:10.260Z,-22149.24
2019-05-26T15:18:38.525Z,-22136.88
2019-05-26T15:21:06.870Z,-22082.01
2019-05-26T15:23:35.102Z,-22130.14
2019-05-26T15:26:05.475Z,-22135.80
2019-05-26T15:28:33.417Z,-22137.41
2019-05-26T15:31:01.724Z,-22025.45
2019-05-26T15:33:34.180Z,-22072.69
2019-05-26T15:36:03.452Z,-21991.78
2019-05-26T15:38:42.352Z,-22028.57
2019-05-26T15:41:09.141Z,-22073.10
2019-05-26T15:43:43.340Z,-22045.91
2019-05-26T15:46:24.085Z,-22052.40
2019-05-26T15:48:41.828Z,-22071.47
2019-05-26T15:51:12.073Z,-22037.92
2019-05-26T15:53:40.364Z,-21989.47
2019-05-26T15:56:08.643Z,-22018.25
2019-05-26T15:58:37.668Z,-22068.91
2019-05-26T16:01:06.030Z,-22057.41
2019-05-26T16:03:34.303Z,-22053.76
2019-05-26T16:06:02.666Z,-22109.14
2019-05-26T16:08:30.947Z,-22063.64
2019-05-26T16:10:59.214Z,-21982.67
2019-05-26T16:13:27.531Z,-22003.60
2019-05-26T16:15:56.794Z,-21921.07
2019-05-26T16:18:25.100Z,-21968.52
2019-05-26T16:21:03.071Z,-21909.46
2019-05-26T16:23:32.259Z,-21920.66
2019-05-26T16:26:00.542Z,-21934.31
2019-05-26T16:28:28.949Z,-21893.73
2019-05-26T16:30:57.219Z,-21891.95
2019-05-26T16:33:25.522Z,-21897.02
2019-05-26T16:35:55.611Z,-21912.88
2019-05-26T16:38:23.920Z,-21913.83
2019-05-26T16:40:52.243Z,-21887.57
2019-05-26T16:43:20.496Z,-21873.89
2019-05-26T16:45:56.146Z,-21904.12
2019-05-26T16:48:18.734Z,-21852.09
2019-05-26T16:50:47.057Z,-21899.48
2019-05-26T16:53:15.338Z,-21912.19
2019-05-26T16:55:44.353Z,-21886.34
2019-05-26T16:58:12.712Z,-21903.71
2019-05-26T17:00:41.029Z,-21876.48
2019-05-26T17:03:09.294Z,-21889.08
2019-05-26T17:05:37.592Z,-21889.90
2019-05-26T17:08:05.936Z,-21914.92
2019-05-26T17:10:34.238Z,-21857.85
2019-05-26T17:13:02.530Z,-21848.93
2019-05-26T17:15:30.838Z,-21859.50
2019-05-26T17:17:59.184Z,-21854.42
2019-05-26T17:20:27.516Z,-21865.11
2019-05-26T17:22:56.890Z,-21880.04
2019-05-26T17:25:25.245Z,-21892.23
2019-05-26T17:27:53.549Z,-21903.30
2019-05-26T17:30:22.365Z,-21884.43
2019-05-26T17:32:50.862Z,-21821.61
2019-05-26T17:35:19.292Z,-21836.72
2019-05-26T17:37:47.569Z,-21865.66
2019-05-26T17:40:15.895Z,-21861.28
2019-05-26T17:42:44.186Z,-21811.85
2019-05-26T17:45:13.205Z,-21815.14
2019-05-26T17:47:44.503Z,-21810.48
2019-05-26T17:50:12.928Z,-21852.23
2019-05-26T17:52:41.256Z,-21865.25
2019-05-26T17:55:10.121Z,-21868.54
2019-05-26T17:57:40.365Z,-21830.68
2019-05-26T18:00:17.842Z,-21867.58
2019-05-26T18:02:46.229Z,-21849.62
2019-05-26T18:05:14.730Z,-21849.89
2019-05-26T18:07:43.043Z,-21874.43
2019-05-26T18:10:11.738Z,-21842.07
2019-05-26T18:12:40.988Z,-21839.19
2019-05-26T18:15:10.325Z,-21835.35
2019-05-26T18:17:46.956Z,-21855.52
2019-05-26T18:20:08.869Z,-21879.23
2019-05-26T18:22:39.294Z,-21838.37
2019-05-26T18:25:08.527Z,-21817.07
2019-05-26T18:27:36.866Z,-21828.48
2019-05-26T18:30:10.170Z,-21819.96
2019-05-26T18:32:40.417Z,-21839.46
2019-05-26T18:35:08.909Z,-21856.62
2019-05-26T18:37:37.243Z,-21849.89
2019-05-26T18:40:06.793Z,-21855.11
2019-05-26T18:42:35.059Z,-21887.98
2019-05-26T18:45:04.495Z,-21822.98
2019-05-26T18:47:34.850Z,-21831.64
2019-05-26T18:50:03.505Z,-21854.42
2019-05-26T18:52:33.943Z,-21825.04
2019-05-26T18:55:03.236Z,-21819.41
2019-05-26T18:57:31.517Z,-21850.03
2019-05-26T18:59:59.832Z,-21839.19
2019-05-26T19:02:28.274Z,-21833.97
2019-05-26T19:04:58.667Z,-21825.87
2019-05-26T19:07:27.021Z,-21839.88
2019-05-26T19:09:55.303Z,-21837.13
2019-05-26T19:12:23.579Z,-21810.61
2019-05-26T19:14:58.223Z,-21808.41
2019-05-26T19:17:29.158Z,-21799.33
2019-05-26T19:19:57.541Z,-21813.91
2019-05-26T19:22:25.900Z,-21804.84
2019-05-26T19:24:54.161Z,-21791.76
2019-05-26T19:27:22.516Z,-21791.76
2019-05-26T19:29:52.859Z,-21803.60
2019-05-26T19:32:21.135Z,-21803.19
2019-05-26T19:34:49.432Z,-21805.80
2019-05-26T19:37:17.696Z,-21781.29
2019-05-26T19:39:46.022Z,-21794.10
2019-05-26T19:42:14.294Z,-21796.02
2019-05-26T19:44:43.576Z,-21782.53
2019-05-26T19:47:11.847Z,-21786.94
2019-05-26T19:49:40.133Z,-21786.39
2019-05-26T19:52:08.512Z,-21781.02
2019-05-26T19:54:36.797Z,-21777.57
2019-05-26T19:57:05.161Z,-21778.12
2019-05-26T19:59:47.466Z,-21782.12
2019-05-26T20:02:18.608Z,-21794.65
2019-05-26T20:04:45.739Z,-21783.36
2019-05-26T20:07:14.931Z,-21807.59
2019-05-26T20:09:43.233Z,-21772.89
2019-05-26T20:12:11.506Z,-21787.90
2019-05-26T20:14:39.967Z,-21805.38
2019-05-26T20:17:08.266Z,-21822.85
2019-05-26T20:19:36.642Z,-21800.16
2019-05-26T20:22:05.015Z,-21779.09
2019-05-26T20:24:34.271Z,-21782.81
2019-05-26T20:27:02.588Z,-21771.64
2019-05-26T20:29:30.940Z,-21773.44
2019-05-26T20:31:59.209Z,-21755.51
2019-05-26T20:34:27.463Z,-21770.82
2019-05-26T20:37:05.205Z,-21756.06
2019-05-26T20:39:33.487Z,-21777.44
2019-05-26T20:42:01.840Z,-21770.68
2019-05-26T20:44:33.737Z,-21769.86
2019-05-26T20:47:03.222Z,-21760.75
2019-05-26T20:49:44.414Z,-21733.98
2019-05-26T20:52:02.652Z,-21766.82
2019-05-26T20:54:32.916Z,-21741.98
2019-05-26T20:57:01.202Z,-21771.37
2019-05-26T20:59:29.509Z,-21773.30
2019-05-26T21:02:01.538Z,-21770.13
2019-05-26T21:04:31.760Z,-21730.38
2019-05-26T21:07:00.057Z,-21713.65
2019-05-26T21:09:28.336Z,-21709.50
2019-05-26T21:12:03.611Z,-21731.21
2019-05-26T21:14:32.851Z,-21737.57
2019-05-26T21:17:02.198Z,-21738.80
2019-05-26T21:19:32.446Z,-21733.98
2019-05-26T21:22:00.793Z,-21733.98
2019-05-26T21:24:29.063Z,-21735.77
2019-05-26T21:26:57.331Z,-21731.76
2019-05-26T21:29:25.620Z,-21720.29
2019-05-26T21:31:53.910Z,-21718.08
2019-05-26T21:34:22.190Z,-21736.05
2019-05-26T21:36:50.463Z,-21724.57
2019-05-26T21:39:26.205Z,-21760.89
2019-05-26T21:41:54.533Z,-21773.71
2019-05-26T21:44:22.823Z,-21742.26
2019-05-26T21:46:57.235Z,-21744.47
2019-05-26T21:49:25.543Z,-21761.45
2019-05-26T21:51:54.897Z,-21746.26
2019-05-26T21:54:23.248Z,-21731.21
2019-05-26T21:56:57.396Z,-21751.64
2019-05-26T21:59:25.729Z,-21762.41
2019-05-26T22:01:54.099Z,-21736.18
2019-05-26T22:04:22.378Z,-21779.50
2019-05-26T22:06:50.808Z,-21764.34
2019-05-26T22:09:20.245Z,-21756.20
2019-05-26T22:11:48.607Z,-21743.50
2019-05-26T22:14:18.944Z,-21727.75
2019-05-26T22:16:48.160Z,-21754.27
2019-05-26T22:19:16.466Z,-21732.04
2019-05-26T22:21:44.727Z,-21733.01
2019-05-26T22:24:14.038Z,-21725.40
2019-05-26T22:26:42.342Z,-21706.18
2019-05-26T22:29:13.280Z,-21725.13
2019-05-26T22:31:51.333Z,-21756.61
2019-05-26T22:34:19.813Z,-21723.88
2019-05-26T22:36:50.143Z,-21730.52
2019-05-26T22:39:18.507Z,-21720.02
2019-05-26T22:41:46.801Z,-21708.81
2019-05-26T22:44:15.155Z,-21733.42
2019-05-26T22:46:43.480Z,-21735.08
2019-05-26T22:49:12.705Z,-21733.83
2019-05-26T22:51:40.989Z,-21737.57
2019-05-26T22:54:11.354Z,-21752.48
2019-05-26T22:56:39.635Z,-21746.26
2019-05-26T22:59:08.110Z,-21734.11
2019-05-26T23:01:37.690Z,-21737.43
2019-05-26T23:04:10.057Z,-21743.64
2019-05-26T23:06:44.367Z,-21760.06
2019-05-26T23:09:15.604Z,-21725.40
2019-05-26T23:11:43.957Z,-21734.53
2019-05-26T23:14:12.238Z,-21711.43
2019-05-26T23:16:40.514Z,-21710.05
2019-05-26T23:19:18.827Z,-21715.04
2019-05-26T23:21:38.876Z,-21713.79
2019-05-26T23:24:13.101Z,-21731.76
2019-05-26T23:26:41.390Z,-21690.54
2019-05-26T23:29:09.672Z,-21742.95
2019-05-26T23:31:38.950Z,-21708.81
2019-05-26T23:34:07.245Z,-21697.18
2019-05-26T23:36:35.557Z,-21715.72
2019-05-26T23:39:05.424Z,-21708.81
2019-05-26T23:41:33.727Z,-21719.60
2019-05-26T23:44:02.023Z,-21692.89
2019-05-26T23:46:30.279Z,-21688.87
2019-05-26T23:48:58.548Z,-21700.36
2019-05-26T23:51:26.820Z,-21687.21
2019-05-26T23:53:55.104Z,-21693.44
2019-05-26T23:56:23.388Z,-21694.69
2019-05-26T23:59:00.640Z,-21683.61
